createdAt,value
2018-05-17T00:02:20.392Z,6.50
2018-05-17T00:04:56.472Z,7.77
2018-05-17T00:07:33.411Z,7.50
2018-05-17T00:10:09.404Z,7.87
2018-05-17T00:12:45.345Z,8.33
2018-05-17T00:15:21.444Z,8.33
2018-05-17T00:17:57.338Z,8.20
2018-05-17T00:20:33.311Z,8.53
2018-05-17T00:23:09.379Z,8.73
2018-05-17T00:25:45.133Z,7.97
2018-05-17T00:28:20.955Z,8.90
2018-05-17T00:30:57.214Z,7.90
2018-05-17T00:33:33.204Z,8.57
2018-05-17T00:36:09.169Z,8.17
2018-05-17T00:38:45.391Z,9.00
2018-05-17T00:41:22.049Z,11.17
2018-05-17T00:43:58.605Z,8.57
2018-05-17T00:46:35.024Z,8.20
2018-05-17T00:49:11.004Z,8.17
2018-05-17T00:51:46.951Z,8.57
2018-05-17T00:54:23.289Z,8.33
2018-05-17T00:56:59.744Z,8.70
2018-05-17T00:59:36.583Z,8.67
2018-05-17T01:02:12.979Z,9.27
2018-05-17T01:04:49.700Z,9.23
2018-05-17T01:07:25.509Z,8.90
2018-05-17T01:10:01.739Z,9.37
2018-05-17T01:12:39.076Z,8.90
2018-05-17T01:15:14.867Z,9.37
2018-05-17T01:17:50.693Z,9.03
2018-05-17T01:20:26.845Z,9.20
2018-05-17T01:23:02.666Z,9.87
2018-05-17T01:25:38.723Z,9.90
2018-05-17T01:28:14.708Z,10.47
2018-05-17T01:30:50.537Z,11.10
2018-05-17T01:33:26.733Z,10.50
2018-05-17T01:36:02.609Z,11.97
2018-05-17T01:38:39.103Z,11.40
2018-05-17T01:41:15.929Z,11.80
2018-05-17T01:43:52.685Z,12.10
2018-05-17T01:46:29.322Z,12.10
2018-05-17T01:49:05.590Z,12.10
2018-05-17T01:51:41.593Z,11.60
2018-05-17T01:54:17.401Z,12.10
2018-05-17T01:56:53.634Z,10.97
2018-05-17T01:59:30.340Z,11.33
2018-05-17T02:02:06.191Z,12.97
2018-05-17T02:04:43.228Z,13.10
2018-05-17T02:07:19.094Z,14.13
2018-05-17T02:09:54.924Z,13.80
2018-05-17T02:12:31.902Z,12.97
2018-05-17T02:15:08.447Z,13.90
2018-05-17T02:17:44.928Z,12.47
2018-05-17T02:20:21.031Z,12.40
2018-05-17T02:22:57.756Z,11.67
2018-05-17T02:25:33.533Z,12.27
2018-05-17T02:28:10.576Z,12.33
2018-05-17T02:30:46.572Z,12.33
2018-05-17T02:33:22.492Z,12.90
2018-05-17T02:35:58.731Z,13.23
2018-05-17T02:38:34.804Z,13.40
2018-05-17T02:41:10.687Z,13.73
2018-05-17T02:43:47.444Z,14.57
2018-05-17T02:46:23.239Z,17.47
2018-05-17T02:48:59.299Z,16.47
2018-05-17T02:51:36.513Z,17.53
2018-05-17T02:54:12.334Z,18.23
2018-05-17T02:56:49.051Z,17.97
2018-05-17T02:59:25.139Z,17.17
2018-05-17T03:02:00.959Z,17.90
2018-05-17T03:04:37.552Z,18.93
2018-05-17T03:07:13.596Z,18.93
2018-05-17T03:09:49.499Z,18.37
2018-05-17T03:12:26.246Z,18.60
2018-05-17T03:15:02.641Z,20.80
2018-05-17T03:17:38.533Z,20.07
2018-05-17T03:20:14.982Z,20.10
2018-05-17T03:22:51.139Z,19.17
2018-05-17T03:25:27.074Z,19.87
2018-05-17T03:28:04.411Z,19.43
2018-05-17T03:30:40.617Z,20.83
2018-05-17T03:33:16.441Z,19.47
2018-05-17T03:35:52.495Z,20.40
2018-05-17T03:38:28.507Z,19.77
2018-05-17T03:41:04.531Z,19.13
2018-05-17T03:43:40.329Z,18.83
2018-05-17T03:46:17.155Z,18.50
2018-05-17T03:48:53.423Z,18.47
2018-05-17T03:51:29.323Z,18.37
2018-05-17T03:54:06.846Z,17.17
2018-05-17T03:56:43.624Z,18.43
2018-05-17T03:59:19.365Z,16.97
2018-05-17T04:02:06.597Z,17.10
2018-05-17T04:06:00.214Z,17.17
2018-05-17T04:08:36.147Z,15.63
2018-05-17T04:11:12.327Z,14.53
2018-05-17T04:13:48.656Z,15.50
2018-05-17T04:16:25.340Z,15.63
2018-05-17T04:19:01.560Z,15.67
2018-05-17T04:21:37.443Z,14.87
2018-05-17T04:24:13.382Z,15.93
2018-05-17T04:26:49.516Z,14.90
2018-05-17T04:29:26.141Z,14.23
2018-05-17T04:32:02.824Z,14.80
2018-05-17T04:34:39.196Z,14.07
2018-05-17T04:37:15.122Z,14.13
2018-05-17T04:39:51.163Z,13.10
2018-05-17T04:42:27.268Z,13.33
2018-05-17T04:45:03.348Z,12.57
2018-05-17T04:47:39.812Z,13.07
2018-05-17T04:50:15.921Z,12.63
2018-05-17T04:52:52.022Z,12.50
2018-05-17T04:55:27.925Z,12.93
2018-05-17T04:58:04.256Z,12.73
2018-05-17T05:00:40.940Z,13.17
2018-05-17T05:03:17.111Z,13.60
2018-05-17T05:05:53.433Z,13.00
2018-05-17T05:08:29.977Z,12.10
2018-05-17T05:11:06.999Z,12.70
2018-05-17T05:13:43.161Z,13.13
2018-05-17T05:16:19.335Z,13.43
2018-05-17T05:18:55.643Z,12.87
2018-05-17T05:21:31.967Z,12.23
2018-05-17T05:24:07.884Z,12.03
2018-05-17T05:26:43.819Z,12.30
2018-05-17T05:29:21.105Z,12.23
2018-05-17T05:31:57.069Z,12.03
2018-05-17T05:34:33.091Z,12.17
2018-05-17T05:37:09.323Z,11.83
2018-05-17T05:39:45.122Z,11.23
2018-05-17T05:42:21.229Z,10.87
2018-05-17T05:44:57.212Z,11.20
2018-05-17T05:47:34.057Z,11.97
2018-05-17T05:50:10.101Z,11.03
2018-05-17T05:52:46.485Z,10.93
2018-05-17T05:55:23.194Z,11.93
2018-05-17T05:57:59.280Z,10.93
2018-05-17T06:00:35.699Z,10.80
2018-05-17T06:03:11.732Z,11.03
2018-05-17T06:05:47.605Z,9.93
2018-05-17T06:08:23.983Z,10.73
2018-05-17T06:10:59.745Z,10.67
2018-05-17T06:13:37.314Z,9.70
2018-05-17T06:16:13.479Z,10.47
2018-05-17T06:18:49.453Z,10.47
2018-05-17T06:21:26.222Z,10.17
2018-05-17T06:24:03.274Z,9.83
2018-05-17T06:26:39.362Z,10.47
2018-05-17T06:29:16.221Z,9.90
2018-05-17T06:31:52.445Z,10.00
2018-05-17T06:34:28.360Z,10.77
2018-05-17T06:37:04.870Z,10.53
2018-05-17T06:39:41.111Z,9.57
2018-05-17T06:42:17.095Z,9.90
2018-05-17T06:44:53.089Z,9.30
2018-05-17T06:47:29.372Z,10.43
2018-05-17T06:50:06.350Z,9.70
2018-05-17T06:52:42.164Z,9.83
2018-05-17T06:55:19.212Z,10.10
2018-05-17T06:57:55.823Z,9.60
2018-05-17T07:00:31.835Z,8.80
2018-05-17T07:03:08.899Z,9.77
2018-05-17T07:05:46.236Z,9.50
2018-05-17T07:08:22.976Z,10.17
2018-05-17T07:10:59.189Z,9.40
2018-05-17T07:13:35.061Z,9.33
2018-05-17T07:16:10.894Z,9.63
2018-05-17T07:18:47.356Z,9.33
2018-05-17T07:21:23.687Z,10.20
2018-05-17T07:23:59.593Z,8.83
2018-05-17T07:26:35.948Z,9.40
2018-05-17T07:29:12.964Z,8.87
2018-05-17T07:31:49.139Z,8.77
2018-05-17T07:34:25.439Z,8.50
2018-05-17T07:37:01.395Z,8.53
2018-05-17T07:39:37.276Z,9.77
2018-05-17T07:42:13.682Z,8.80
2018-05-17T07:44:50.168Z,8.93
2018-05-17T07:47:26.347Z,9.10
2018-05-17T07:50:02.621Z,9.03
2018-05-17T07:52:39.351Z,8.47
2018-05-17T07:55:15.415Z,8.60
2018-05-17T07:57:51.356Z,8.37
2018-05-17T08:00:27.455Z,8.90
2018-05-17T08:03:04.129Z,7.80
2018-05-17T08:05:40.044Z,8.97
2018-05-17T08:08:16.940Z,7.80
2018-05-17T08:10:53.003Z,7.97
2018-05-17T08:13:28.940Z,8.33
2018-05-17T08:16:05.250Z,8.10
2018-05-17T08:18:41.169Z,7.80
2018-05-17T08:21:17.111Z,8.33
2018-05-17T08:23:53.002Z,8.17
2018-05-17T08:26:29.056Z,7.90
2018-05-17T08:29:04.978Z,8.23
2018-05-17T08:31:41.113Z,8.30
2018-05-17T08:34:18.639Z,8.97
2018-05-17T08:36:54.933Z,8.33
2018-05-17T08:39:31.271Z,8.67
2018-05-17T08:42:07.181Z,9.03
2018-05-17T08:44:44.135Z,9.50
2018-05-17T08:47:20.755Z,8.90
2018-05-17T08:49:57.974Z,9.23
2018-05-17T08:52:33.765Z,9.13
2018-05-17T08:55:11.769Z,9.70
2018-05-17T08:57:47.743Z,9.03
2018-05-17T09:00:24.243Z,10.00
2018-05-17T09:03:00.512Z,10.70
2018-05-17T09:05:37.316Z,10.10
2018-05-17T09:08:13.569Z,9.87
2018-05-17T09:10:49.865Z,9.27
2018-05-17T09:13:26.038Z,9.73
2018-05-17T09:16:02.759Z,9.90
2018-05-17T09:18:38.798Z,9.83
2018-05-17T09:21:15.556Z,10.30
2018-05-17T09:23:51.747Z,10.53
2018-05-17T09:26:29.789Z,9.80
2018-05-17T09:29:06.811Z,9.47
2018-05-17T09:31:42.742Z,10.73
2018-05-17T09:34:19.393Z,10.30
2018-05-17T09:36:55.852Z,9.53
2018-05-17T09:39:38.385Z,11.20
2018-05-17T09:42:14.514Z,10.40
2018-05-17T09:44:50.685Z,10.50
2018-05-17T09:47:27.278Z,11.00
2018-05-17T09:50:03.307Z,11.03
2018-05-17T09:52:39.939Z,10.23
2018-05-17T09:55:16.986Z,9.77
2018-05-17T09:57:54.326Z,11.47
2018-05-17T10:00:31.395Z,10.27
2018-05-17T10:03:07.452Z,10.17
2018-05-17T10:05:43.453Z,10.40
2018-05-17T10:08:20.037Z,10.33
2018-05-17T10:10:56.658Z,10.03
2018-05-17T10:13:33.432Z,10.87
2018-05-17T10:16:09.926Z,9.77
2018-05-17T10:18:46.983Z,10.10
2018-05-17T10:21:22.937Z,10.03
2018-05-17T10:23:59.312Z,9.87
2018-05-17T10:26:35.387Z,10.37
2018-05-17T10:29:15.206Z,10.33
2018-05-17T10:31:51.541Z,10.17
2018-05-17T10:34:27.506Z,9.83
2018-05-17T10:37:04.200Z,10.30
2018-05-17T10:39:41.663Z,9.67
2018-05-17T10:42:17.737Z,10.03
2018-05-17T10:44:54.139Z,9.63
2018-05-17T10:47:30.425Z,9.93
2018-05-17T10:50:07.082Z,10.37
2018-05-17T10:52:43.250Z,9.87
2018-05-17T10:55:20.102Z,11.20
2018-05-17T10:57:56.722Z,11.00
2018-05-17T11:00:32.732Z,9.70
2018-05-17T11:03:08.793Z,12.60
2018-05-17T11:05:44.937Z,10.83
2018-05-17T11:08:21.698Z,12.23
2018-05-17T11:10:58.018Z,11.67
2018-05-17T11:13:34.752Z,11.43
2018-05-17T11:16:11.175Z,11.90
2018-05-17T11:18:47.229Z,11.80
2018-05-17T11:21:23.440Z,12.47
2018-05-17T11:23:59.986Z,12.03
2018-05-17T11:26:36.883Z,12.17
2018-05-17T11:29:12.960Z,11.40
2018-05-17T11:31:49.390Z,12.00
2018-05-17T11:34:25.384Z,11.50
2018-05-17T11:37:01.627Z,11.73
2018-05-17T11:39:38.733Z,12.00
2018-05-17T11:42:15.148Z,11.43
2018-05-17T11:44:51.271Z,12.07
2018-05-17T11:47:27.843Z,12.47
2018-05-17T11:50:04.037Z,11.87
2018-05-17T11:52:40.038Z,12.87
2018-05-17T11:55:16.632Z,12.97
2018-05-17T11:57:53.069Z,12.80
2018-05-17T12:00:29.145Z,12.97
2018-05-17T12:03:06.244Z,12.70
2018-05-17T12:05:42.366Z,11.90
2018-05-17T12:08:18.409Z,12.33
2018-05-17T12:10:55.163Z,13.03
2018-05-17T12:13:31.043Z,12.77
2018-05-17T12:17:09.751Z,12.23
2018-05-17T12:19:45.894Z,12.97
2018-05-17T12:22:21.692Z,12.90
2018-05-17T12:24:59.657Z,12.33
2018-05-17T12:27:37.445Z,12.33
2018-05-17T12:30:13.218Z,12.77
2018-05-17T12:32:50.069Z,12.27
2018-05-17T12:35:27.050Z,13.63
2018-05-17T12:38:03.479Z,13.23
2018-05-17T12:40:39.577Z,13.40
2018-05-17T12:43:15.471Z,12.70
2018-05-17T12:45:51.774Z,12.70
2018-05-17T12:48:27.745Z,13.17
2018-05-17T12:51:03.615Z,12.50
2018-05-17T12:53:39.854Z,14.10
2018-05-17T12:56:15.765Z,13.10
2018-05-17T12:58:52.493Z,13.13
2018-05-17T13:01:29.616Z,12.10
2018-05-17T13:04:05.640Z,11.77
2018-05-17T13:06:42.345Z,12.57
2018-05-17T13:09:18.263Z,12.33
2018-05-17T13:11:54.332Z,11.77
2018-05-17T13:14:31.050Z,13.17
2018-05-17T13:17:07.098Z,11.17
2018-05-17T13:19:43.767Z,11.17
2018-05-17T13:22:20.535Z,10.90
2018-05-17T13:24:57.551Z,10.67
2018-05-17T13:27:33.801Z,10.40
2018-05-17T13:30:12.068Z,9.63
2018-05-17T13:32:48.897Z,9.60
2018-05-17T13:35:25.172Z,9.93
2018-05-17T13:38:01.138Z,10.63
2018-05-17T13:40:37.250Z,10.27
2018-05-17T13:43:13.297Z,9.27
2018-05-17T13:45:49.602Z,10.43
2018-05-17T13:48:26.022Z,9.57
2018-05-17T13:51:03.134Z,9.83
2018-05-17T13:53:39.944Z,8.97
2018-05-17T13:56:16.119Z,9.07
2018-05-17T13:58:52.482Z,9.60
2018-05-17T14:01:29.216Z,9.23
2018-05-17T14:04:05.330Z,8.87
2018-05-17T14:06:42.366Z,8.73
2018-05-17T14:09:20.629Z,8.10
2018-05-17T14:12:00.332Z,9.10
2018-05-17T14:14:37.603Z,8.20
2018-05-17T14:17:13.645Z,8.17
2018-05-17T14:19:49.756Z,9.20
2018-05-17T14:22:25.812Z,7.83
2018-05-17T14:25:02.573Z,8.13
2018-05-17T14:27:38.863Z,8.03
2018-05-17T14:30:14.826Z,8.00
2018-05-17T14:32:50.869Z,8.20
2018-05-17T14:35:28.070Z,7.47
2018-05-17T14:38:04.146Z,8.43
2018-05-17T14:40:40.454Z,7.73
2018-05-17T14:43:17.696Z,9.00
2018-05-17T14:45:53.849Z,8.00
2018-05-17T14:48:29.800Z,8.37
2018-05-17T14:51:06.564Z,7.67
2018-05-17T14:53:42.492Z,9.30
2018-05-17T14:56:18.866Z,9.00
2018-05-17T14:58:55.097Z,8.63
2018-05-17T15:01:32.780Z,8.20
2018-05-17T15:04:08.985Z,7.87
2018-05-17T15:06:46.279Z,8.43
2018-05-17T15:09:24.844Z,7.33
2018-05-17T15:12:00.927Z,7.67
2018-05-17T15:14:48.618Z,7.80
2018-05-17T15:17:29.893Z,7.80
2018-05-17T15:20:08.082Z,7.40
2018-05-17T15:22:44.513Z,7.40
2018-05-17T15:25:20.459Z,7.10
2018-05-17T15:27:58.416Z,8.37
2018-05-17T15:30:34.378Z,8.20
2018-05-17T15:33:11.198Z,8.53
2018-05-17T15:35:47.259Z,8.10
2018-05-17T15:38:23.789Z,7.93
2018-05-17T15:41:01.004Z,8.40
2018-05-17T15:43:36.864Z,7.70
2018-05-17T15:46:13.403Z,8.13
2018-05-17T15:48:51.390Z,7.90
2018-05-17T15:51:28.292Z,8.17
2018-05-17T15:54:04.364Z,7.30
2018-05-17T15:56:41.172Z,6.63
2018-05-17T15:59:17.378Z,7.80
2018-05-17T16:01:53.995Z,7.80
2018-05-17T16:04:31.113Z,7.73
2018-05-17T16:07:08.552Z,8.40
2018-05-17T16:09:49.346Z,7.80
2018-05-17T16:12:25.876Z,7.37
2018-05-17T16:15:03.156Z,7.17
2018-05-17T16:17:41.130Z,7.43
2018-05-17T16:20:17.457Z,7.30
2018-05-17T16:22:54.151Z,7.03
2018-05-17T16:25:31.061Z,6.30
2018-05-17T16:28:07.024Z,7.23
2018-05-17T16:30:43.523Z,7.47
2018-05-17T16:33:20.189Z,6.63
2018-05-17T16:35:57.481Z,6.77
2018-05-17T16:38:35.554Z,7.33
2018-05-17T16:41:11.989Z,7.53
2018-05-17T16:43:48.383Z,7.13
2018-05-17T16:46:24.629Z,7.17
2018-05-17T16:49:01.355Z,7.23
2018-05-17T16:51:39.835Z,7.23
2018-05-17T16:54:16.271Z,6.53
2018-05-17T16:56:52.340Z,6.47
2018-05-17T16:59:32.084Z,6.03
2018-05-17T17:02:13.226Z,5.43
2018-05-17T17:04:49.466Z,6.87
2018-05-17T17:07:26.581Z,6.17
2018-05-17T17:10:03.298Z,7.07
2018-05-17T17:12:39.462Z,6.80
2018-05-17T17:15:15.776Z,6.53
2018-05-17T17:17:52.971Z,7.10
2018-05-17T17:20:29.175Z,6.97
2018-05-17T17:23:07.227Z,6.83
2018-05-17T17:25:43.940Z,6.97
2018-05-17T17:28:22.997Z,6.73
2018-05-17T17:32:23.193Z,6.60
2018-05-17T17:34:59.191Z,7.23
2018-05-17T17:37:35.313Z,6.87
2018-05-17T17:40:11.441Z,7.20
2018-05-17T17:42:48.489Z,7.20
2018-05-17T17:45:24.646Z,7.40
2018-05-17T17:48:00.957Z,7.27
2018-05-17T17:50:37.460Z,7.20
2018-05-17T17:53:13.502Z,7.10
2018-05-17T17:55:50.968Z,7.13
2018-05-17T17:58:27.316Z,7.60
2018-05-17T18:01:03.394Z,7.60
2018-05-17T18:03:40.426Z,8.20
2018-05-17T18:06:17.084Z,6.97
2018-05-17T18:08:53.795Z,7.47
2018-05-17T18:11:29.769Z,6.83
2018-05-17T18:14:05.942Z,7.33
2018-05-17T18:16:41.829Z,7.03
2018-05-17T18:19:18.093Z,7.50
2018-05-17T18:21:54.232Z,7.93
2018-05-17T18:24:30.945Z,7.47
2018-05-17T18:27:07.061Z,7.70
2018-05-17T18:29:43.139Z,6.97
2018-05-17T18:32:19.146Z,7.33
2018-05-17T18:34:55.461Z,9.73
2018-05-17T18:37:32.278Z,7.67
2018-05-17T18:40:08.341Z,8.33
2018-05-17T18:42:44.550Z,8.23
2018-05-17T18:45:20.663Z,8.47
2018-05-17T18:47:56.371Z,7.87
2018-05-17T18:50:32.945Z,8.30
2018-05-17T18:53:09.152Z,7.70
2018-05-17T18:55:45.866Z,8.27
2018-05-17T18:58:21.547Z,8.40
2018-05-17T19:00:57.580Z,7.90
2018-05-17T19:03:34.099Z,7.83
2018-05-17T19:06:10.007Z,7.80
2018-05-17T19:08:46.015Z,7.90
2018-05-17T19:11:23.105Z,7.03
2018-05-17T19:13:59.387Z,8.43
2018-05-17T19:16:36.793Z,7.47
2018-05-17T19:19:13.336Z,8.10
2018-05-17T19:21:49.310Z,8.40
2018-05-17T19:27:15.767Z,7.80
2018-05-17T19:29:51.764Z,8.03
2018-05-17T19:32:28.070Z,7.70
2018-05-17T19:35:03.967Z,7.37
2018-05-17T19:37:39.976Z,8.17
2018-05-17T19:40:16.187Z,8.10
2018-05-17T19:42:51.967Z,7.63
2018-05-17T19:45:27.739Z,7.57
2018-05-17T19:48:03.533Z,7.30
2018-05-17T19:50:40.578Z,8.60
2018-05-17T19:53:16.698Z,7.50
2018-05-17T19:55:52.723Z,7.73
2018-05-17T19:58:29.402Z,7.57
2018-05-17T20:01:05.715Z,7.90
2018-05-17T20:03:41.713Z,8.10
2018-05-17T20:06:17.706Z,8.23
2018-05-17T20:08:54.468Z,9.00
2018-05-17T20:11:30.612Z,9.37
2018-05-17T20:14:06.443Z,9.47
2018-05-17T20:16:42.916Z,9.50
2018-05-17T20:19:18.703Z,8.90
2018-05-17T20:21:55.348Z,9.87
2018-05-17T20:24:31.667Z,9.47
2018-05-17T20:27:08.111Z,9.23
2018-05-17T20:29:44.826Z,8.83
2018-05-17T20:32:21.059Z,9.00
2018-05-17T20:34:57.584Z,8.37
2018-05-17T20:37:34.161Z,9.53
2018-05-17T20:40:10.231Z,8.37
2018-05-17T20:42:46.307Z,8.63
2018-05-17T20:45:22.961Z,8.60
2018-05-17T20:47:59.227Z,8.50
2018-05-17T20:50:35.208Z,9.23
2018-05-17T20:53:11.177Z,9.07
2018-05-17T20:55:47.401Z,7.57
2018-05-17T20:58:24.132Z,8.70
2018-05-17T21:01:00.154Z,7.77
2018-05-17T21:03:36.968Z,7.77
2018-05-17T21:06:12.871Z,7.50
2018-05-17T21:08:48.957Z,7.97
2018-05-17T21:11:25.789Z,9.17
2018-05-17T21:14:02.349Z,8.50
2018-05-17T21:16:38.177Z,8.47
2018-05-17T21:19:14.247Z,8.37
2018-05-17T21:21:50.284Z,9.77
2018-05-17T21:24:26.777Z,11.20
2018-05-17T21:27:03.660Z,10.00
2018-05-17T21:29:39.629Z,9.47
2018-05-17T21:32:16.023Z,9.43
2018-05-17T21:34:52.318Z,9.70
2018-05-17T21:37:28.137Z,9.87
2018-05-17T21:40:03.962Z,9.70
2018-05-17T21:42:39.677Z,9.17
2018-05-17T21:45:15.679Z,9.07
2018-05-17T21:47:52.720Z,8.40
2018-05-17T21:50:28.634Z,8.63
2018-05-17T21:53:05.034Z,9.00
2018-05-17T21:55:41.121Z,8.80
2018-05-17T21:58:18.473Z,10.57
2018-05-17T22:00:55.329Z,9.40
2018-05-17T22:03:31.478Z,9.07
2018-05-17T22:06:07.374Z,8.87
2018-05-17T22:08:43.223Z,8.93
2018-05-17T22:11:19.569Z,8.57
2018-05-17T22:13:55.433Z,9.30
2018-05-17T22:16:32.064Z,8.83
2018-05-17T22:19:08.242Z,9.97
2018-05-17T22:21:44.265Z,8.87
2018-05-17T22:24:21.607Z,9.20
2018-05-17T22:26:58.106Z,8.10
2018-05-17T22:29:33.910Z,7.60
2018-05-17T22:32:09.711Z,8.30
2018-05-17T22:34:45.837Z,8.17
2018-05-17T22:37:22.022Z,8.13
2018-05-17T22:39:58.112Z,8.03
2018-05-17T22:42:34.270Z,8.67
2018-05-17T22:45:10.039Z,7.87
2018-05-17T22:47:47.341Z,8.70
2018-05-17T22:50:23.553Z,9.43
2018-05-17T22:53:11.073Z,9.70
2018-05-17T22:55:48.062Z,8.20
2018-05-17T22:58:34.839Z,8.50
2018-05-17T23:01:11.696Z,8.80
2018-05-17T23:03:48.691Z,8.27
2018-05-17T23:06:25.747Z,8.20
2018-05-17T23:09:01.743Z,8.13
2018-05-17T23:11:37.451Z,7.67
2018-05-17T23:14:13.714Z,8.13
2018-05-17T23:16:49.471Z,8.00
2018-05-17T23:19:25.354Z,8.60
2018-05-17T23:22:01.633Z,8.40
2018-05-17T23:24:37.472Z,8.13
2018-05-17T23:27:15.110Z,8.60
2018-05-17T23:29:51.102Z,9.27
2018-05-17T23:32:27.186Z,8.30
2018-05-17T23:35:03.419Z,7.50
2018-05-17T23:37:39.270Z,8.03
2018-05-17T23:40:25.815Z,7.43
2018-05-17T23:43:03.650Z,7.73
2018-05-17T23:45:44.216Z,7.83
2018-05-17T23:48:22.431Z,7.17
2018-05-17T23:51:02.705Z,8.17
2018-05-17T23:53:41.551Z,8.13
2018-05-17T23:56:19.077Z,8.00
2018-05-17T23:59:04.498Z,8.77
